Terminal Aerodrome Forecast
Issued by NWS Huntsville, AL

Home | Current Version | Previous Version | Text Only | Print | Product List | Glossary On
Versions: 1 2 3 4 5 6 7 8 9 10 11 12 13 14 15 16 17 18 19 20 21 22 23 24 25 26 27 28 29 30 31 32
000
FTUS44 KHUN 121720
TAFHSV
TAF
KHSV 121720Z 1218/1318 14004KT P6SM SCT040
      TEMPO 1219/1222 BKN040
     FM130000 VRB03KT P6SM SKC
      TEMPO 1310/1313 5SM BR
     FM131600 21006KT P6SM SCT040=

USA.gov is the U.S. government's official web portal to all federal, state and local government web resources and services.